ESPA/LLA METAR and TAF weather

Enter ICAO airport designator
Station Type Date Time Source
ESPA METAR 2020/03/30 05:50 UTC NOAA

ESPA 300550Z 32012KT CAVOK M09/M14 Q1023


Station Type Date Time Source
ESPA Decoded METAR 2020/03/30 05:50 UTC NOAA

Lulea / Kallax, Sweden (ESPA) 65-33N 022-08E 34M
Mar 30, 2020 - 01:50 AM EDT / 2020.03.30 0550 UTC
Wind: from the NW (320 degrees) at 14 MPH (12 KT):0
Visibility: greater than 7 mile(s):0
Temperature: 15 F (-9 C)
Windchill: 0 F (-18 C):1
Dew Point: 6 F (-14 C)
Relative Humidity: 67%
Pressure (altimeter): 30.21 in. Hg (1023 hPa)
ob: ESPA 300550Z 32012KT CAVOK M09/M14 Q1023
cycle: 6

Station Type Date Time Source
ESPA TAF 2019/02/04 06:27 UTC NOAA

TAF TAF ESPA 040820Z 0406/0418 01010KT 2000 SN VV020
TEMPO 0409/0414 1000 +SN DRSN VV009
BECMG 0414/0416 32010KT 5000 -SN VV030
RMK MIL

Example: see airport list